Time;durP1;ratioP1;P1;durP2;ratioP2;P2;SDS_P1;SDS_P2;PMS_P1;PMS_P2;Temp;Humidity;BMP_temperature;BMP_pressure;BME280_temperature;BME280_humidity;BME280_pressure;Samples;Min_cycle;Max_cycle;Signal;HPM_P1;HPM_P2
2021/07/11 00:00:46;;;;;;;10.48;8.18;;;;;;;19.25;98.16;101035.00;4987800;28;20046;-75
2021/07/11 00:03:11;;;;;;;9.38;7.22;;;;;;;19.16;98.66;101029.22;4999678;28;20041;-75
2021/07/11 00:05:36;;;;;;;15.80;7.70;;;;;;;19.17;98.44;101017.91;5002525;28;20110;-75
2021/07/11 00:08:02;;;;;;;9.02;7.03;;;;;;;19.14;98.47;101023.41;4983791;28;20026;-75
2021/07/11 00:10:28;;;;;;;13.65;7.40;;;;;;;19.12;98.16;101025.75;4996851;28;20068;-75
2021/07/11 00:12:55;;;;;;;10.52;7.70;;;;;;;19.01;98.80;101030.53;4988922;28;20034;-75
2021/07/11 00:15:23;;;;;;;11.95;7.75;;;;;;;19.00;98.92;101029.75;4975710;28;20034;-75
2021/07/11 00:17:52;;;;;;;9.18;7.10;;;;;;;19.04;98.10;101025.03;4986715;28;20034;-75
2021/07/11 00:20:18;;;;;;;12.45;7.45;;;;;;;19.09;98.23;101032.78;4995372;28;20046;-75
2021/07/11 00:22:44;;;;;;;12.60;8.13;;;;;;;18.95;98.53;101035.63;4977971;28;20038;-75
2021/07/11 00:25:11;;;;;;;12.43;8.55;;;;;;;19.23;96.62;101024.47;4989271;28;20841;-76
2021/07/11 00:27:37;;;;;;;11.55;7.85;;;;;;;19.17;96.85;101026.09;5003013;28;20498;-75
2021/07/11 00:30:03;;;;;;;13.75;7.90;;;;;;;19.24;96.30;101026.00;4979169;28;20042;-75
2021/07/11 00:32:29;;;;;;;13.68;8.63;;;;;;;19.17;96.94;101026.09;4978971;28;20030;-76
2021/07/11 00:34:54;;;;;;;13.57;8.27;;;;;;;19.21;96.53;101031.50;4998631;28;20031;-75
2021/07/11 00:37:20;;;;;;;13.30;8.90;;;;;;;19.24;96.35;101026.00;4999560;28;20117;-75
2021/07/11 00:39:45;;;;;;;14.90;8.38;;;;;;;19.24;96.48;101028.00;4998918;28;20038;-75
2021/07/11 00:42:13;;;;;;;12.80;7.63;;;;;;;19.20;96.31;101019.81;5006379;28;20411;-75
2021/07/11 00:44:38;;;;;;;14.90;8.23;;;;;;;19.13;96.60;101019.88;4978304;28;20498;-75
2021/07/11 00:47:06;;;;;;;10.25;7.45;;;;;;;19.11;96.77;101016.00;4999786;28;20446;-75
2021/07/11 00:49:31;;;;;;;12.93;7.97;;;;;;;19.09;96.68;101021.06;4989567;28;20041;-75
2021/07/11 00:51:58;;;;;;;14.57;7.85;;;;;;;19.05;97.17;101021.13;4988424;28;20036;-76
2021/07/11 00:54:24;;;;;;;11.02;7.95;;;;;;;18.97;97.63;101024.31;4979762;28;20137;-75
2021/07/11 00:56:50;;;;;;;12.27;7.03;;;;;;;19.02;97.83;101026.59;4987883;28;20085;-76
2021/07/11 00:59:20;;;;;;;11.13;7.32;;;;;;;19.00;97.90;101029.75;4989857;28;20026;-75
2021/07/11 01:02:02;;;;;;;10.00;7.20;;;;;;;18.92;98.57;101033.72;4995168;28;20038;-75
2021/07/11 01:04:38;;;;;;;10.70;6.85;;;;;;;18.95;98.04;101032.88;4998976;28;20061;-75
2021/07/11 01:07:08;;;;;;;9.85;7.28;;;;;;;18.98;97.93;101036.78;4990855;28;20121;-75
2021/07/11 01:09:37;;;;;;;11.55;7.07;;;;;;;18.95;98.28;101029.41;4993616;28;20038;-75
2021/07/11 01:12:08;;;;;;;11.43;7.95;;;;;;;18.97;98.17;101033.25;4990859;28;20037;-75
2021/07/11 01:14:42;;;;;;;10.73;7.68;;;;;;;18.98;98.11;101028.59;4989207;28;20085;-75
2021/07/11 01:17:09;;;;;;;11.75;7.03;;;;;;;19.03;97.70;101042.59;5003056;28;20085;-75
2021/07/11 01:19:41;;;;;;;12.93;7.40;;;;;;;19.03;97.31;101037.13;4990246;28;20038;-75
2021/07/11 01:22:12;;;;;;;13.98;7.55;;;;;;;19.01;97.77;101036.75;5006014;28;20129;-75
2021/07/11 01:24:53;;;;;;;12.48;7.95;;;;;;;19.07;97.12;101040.59;4983833;28;20035;-76
2021/07/11 01:27:19;;;;;;;10.27;7.85;;;;;;;19.10;97.23;101028.09;5002588;28;20031;-75
2021/07/11 01:29:46;;;;;;;12.40;8.07;;;;;;;19.08;97.37;101033.97;4976082;28;20498;-74
2021/07/11 01:32:14;;;;;;;12.48;7.97;;;;;;;19.08;97.01;101041.38;4991190;28;20122;-75
2021/07/11 01:34:42;;;;;;;11.10;7.15;;;;;;;19.10;96.84;101042.53;4987630;28;20109;-75
2021/07/11 01:37:08;;;;;;;10.30;7.72;;;;;;;19.13;96.91;101041.72;4990637;28;20062;-75
2021/07/11 01:39:35;;;;;;;11.73;7.43;;;;;;;19.18;96.08;101040.53;4985703;28;20042;-75
2021/07/11 01:42:01;;;;;;;10.93;7.63;;;;;;;19.19;95.71;101044.78;4992860;28;20525;-75
2021/07/11 01:44:28;;;;;;;10.85;7.82;;;;;;;19.34;94.87;101046.25;4987324;28;20031;-75
2021/07/11 01:46:54;;;;;;;9.25;6.85;;;;;;;19.21;95.28;101043.22;4999923;28;20110;-75
2021/07/11 01:49:20;;;;;;;20.20;8.18;;;;;;;19.13;96.09;101046.41;4995750;28;20031;-75
2021/07/11 01:51:51;;;;;;;12.20;7.80;;;;;;;19.14;95.93;101043.28;4977021;28;20150;-75
2021/07/11 01:54:20;;;;;;;14.23;8.00;;;;;;;19.18;96.03;101046.00;5008437;28;20030;-75
2021/07/11 01:56:46;;;;;;;8.80;7.13;;;;;;;19.14;96.75;101048.75;5004167;28;20397;-75
2021/07/11 01:59:18;;;;;;;;;;;;;;;19.00;96.67;101043.41;4998983;28;20109;-75
2021/07/11 02:01:49;;;;;;;12.50;7.35;;;;;;;19.08;97.32;101047.63;4990046;28;19914;-75
2021/07/11 02:04:16;;;;;;;11.20;7.32;;;;;;;19.12;96.92;101051.09;5008942;28;20030;-75
2021/07/11 02:06:45;;;;;;;9.20;7.30;;;;;;;19.05;97.14;101048.41;4998246;28;20033;-75
2021/07/11 02:09:18;;;;;;;12.15;7.45;;;;;;;19.07;97.77;101042.53;5015678;28;20038;-76
2021/07/11 02:11:46;;;;;;;9.65;7.53;;;;;;;19.02;97.71;101043.00;4992041;28;20064;-77
2021/07/11 02:14:23;;;;;;;11.45;7.07;;;;;;;19.06;97.77;101049.19;4985586;28;20035;-76
2021/07/11 02:16:52;;;;;;;11.10;7.65;;;;;;;19.04;98.16;101052.34;4986705;28;20058;-76
2021/07/11 02:19:24;;;;;;;10.43;7.25;;;;;;;18.99;98.61;101041.84;5008499;28;20034;-76
2021/07/11 02:21:52;;;;;;;11.65;8.00;;;;;;;19.00;98.42;101037.94;4988909;28;20048;-76
2021/07/11 02:24:19;;;;;;;11.70;7.40;;;;;;;19.07;97.90;101040.59;4978446;28;20031;-77
2021/07/11 02:26:50;;;;;;;9.82;7.00;;;;;;;18.96;98.79;101041.88;4998510;28;20377;-76
2021/07/11 02:29:16;;;;;;;11.13;7.32;;;;;;;18.95;99.07;101046.53;4985983;28;20038;-76
2021/07/11 02:31:44;;;;;;;10.18;7.45;;;;;;;19.01;99.13;101039.47;4983910;28;20018;-76
2021/07/11 02:34:12;;;;;;;11.30;7.57;;;;;;;19.02;98.62;101032.84;4995070;28;20030;-76
2021/07/11 02:36:51;;;;;;;11.35;7.85;;;;;;;19.03;98.58;101041.81;4999635;28;20034;-76
2021/07/11 02:39:22;;;;;;;11.07;7.05;;;;;;;19.06;98.86;101041.78;5014084;28;20074;-76
2021/07/11 02:42:00;;;;;;;10.18;7.78;;;;;;;19.03;99.28;101045.31;4996266;28;20065;-76
2021/07/11 02:44:28;;;;;;;14.50;7.72;;;;;;;19.01;99.44;101038.72;4989258;28;20069;-76
2021/07/11 02:47:02;;;;;;;12.55;8.60;;;;;;;18.98;99.35;101037.56;4993246;28;20724;-76
2021/07/11 02:49:31;;;;;;;9.60;7.97;;;;;;;18.83;99.86;101041.59;4982040;28;20039;-76
2021/07/11 02:52:07;;;;;;;12.68;8.32;;;;;;;18.98;99.28;101032.09;4994337;28;20406;-76
2021/07/11 02:54:45;;;;;;;12.50;8.27;;;;;;;18.99;99.54;101030.91;5004100;28;20026;-76
2021/07/11 02:57:17;;;;;;;14.45;8.05;;;;;;;19.15;98.14;101028.44;5007163;28;20129;-77
2021/07/11 02:59:46;;;;;;;12.32;8.52;;;;;;;19.04;99.42;101035.19;5007647;28;20034;-76
2021/07/11 03:02:13;;;;;;;11.75;8.20;;;;;;;19.06;99.96;101030.88;5007068;28;20402;-76
2021/07/11 03:04:42;;;;;;;12.15;8.13;;;;;;;19.09;99.19;101027.31;5015620;28;20029;-76
2021/07/11 03:07:08;;;;;;;14.48;9.07;;;;;;;19.07;99.28;101037.09;5006724;28;20129;-76
2021/07/11 03:09:40;;;;;;;11.10;8.68;;;;;;;19.06;98.57;101030.88;4980496;28;20034;-76
2021/07/11 03:12:07;;;;;;;12.52;8.85;;;;;;;19.06;99.04;101030.88;4991703;28;20049;-77
2021/07/11 03:14:37;;;;;;;13.15;9.20;;;;;;;19.09;98.79;101027.31;4984905;28;20027;-77
2021/07/11 03:17:06;;;;;;;15.50;8.50;;;;;;;19.04;99.09;101033.22;4981504;28;20038;-76
2021/07/11 03:19:36;;;;;;;14.32;8.25;;;;;;;18.94;99.58;101034.09;5000450;28;20022;-76
2021/07/11 03:22:04;;;;;;;13.40;8.35;;;;;;;18.98;99.17;101037.56;5005571;28;20165;-76
2021/07/11 03:24:32;;;;;;;13.00;8.82;;;;;;;19.04;98.72;101035.19;4996329;28;20078;-76
2021/07/11 03:27:01;;;;;;;15.73;8.68;;;;;;;19.10;98.29;101036.28;4990433;28;20034;-78
2021/07/11 03:29:33;;;;;;;12.10;8.85;;;;;;;18.98;98.80;101037.56;4989781;28;20037;-76
2021/07/11 03:32:01;;;;;;;17.88;9.10;;;;;;;19.02;99.07;101027.38;5004481;28;20129;-76
2021/07/11 03:34:30;;;;;;;12.80;8.30;;;;;;;19.02;98.56;101038.31;4994482;28;20030;-76
2021/07/11 03:37:09;;;;;;;17.75;8.00;;;;;;;19.04;98.74;101025.03;4995063;28;20041;-76
2021/07/11 03:39:47;;;;;;;14.88;9.00;;;;;;;19.01;99.26;101036.00;4993473;28;20032;-76
2021/07/11 03:42:18;;;;;;;13.75;7.95;;;;;;;18.96;99.38;101031.72;5007924;28;20026;-76
2021/07/11 03:44:48;;;;;;;12.77;7.85;;;;;;;19.04;99.14;101025.03;4990458;28;20033;-76
2021/07/11 03:47:18;;;;;;;12.65;8.35;;;;;;;19.04;99.20;101025.03;4989550;28;20506;-77
2021/07/11 03:49:47;;;;;;;11.00;7.68;;;;;;;19.09;98.76;101030.06;4984204;28;20061;-77
2021/07/11 03:52:14;;;;;;;11.48;8.02;;;;;;;19.04;99.32;101035.97;5000173;28;20402;-76
2021/07/11 03:54:42;;;;;;;13.65;8.27;;;;;;;19.08;99.40;101016.81;4987433;28;20069;-77
2021/07/11 03:57:11;;;;;;;13.30;7.60;;;;;;;19.06;99.67;101019.16;4978757;28;20121;-77
2021/07/11 03:59:38;;;;;;;13.80;8.50;;;;;;;19.07;99.78;101024.22;4985158;28;20026;-77
2021/07/11 04:02:06;;;;;;;13.60;8.43;;;;;;;19.17;99.48;101028.03;4981177;28;20034;-77
2021/07/11 04:04:34;;;;;;;14.65;8.40;;;;;;;19.32;98.22;101029.44;4987180;28;20112;-77
2021/07/11 04:07:01;;;;;;;11.30;8.13;;;;;;;19.43;97.41;101028.22;4990054;28;20042;-77
2021/07/11 04:09:27;;;;;;;10.75;8.32;;;;;;;19.28;98.64;101021.28;4989791;28;20030;-77
2021/07/11 04:11:54;;;;;;;11.02;7.88;;;;;;;19.40;97.79;101028.25;4990854;28;20092;-77
2021/07/11 04:14:21;;;;;;;14.05;8.55;;;;;;;19.34;98.19;101040.78;4991196;28;20029;-77
2021/07/11 04:16:54;;;;;;;11.90;8.63;;;;;;;19.33;98.03;101037.28;5003905;28;20030;-76
2021/07/11 04:19:26;;;;;;;11.30;8.43;;;;;;;19.32;98.10;101033.00;4983396;28;20042;-77
2021/07/11 04:21:53;;;;;;;17.48;8.75;;;;;;;19.23;99.35;101031.88;5000042;28;20466;-77
2021/07/11 04:24:21;;;;;;;14.75;8.93;;;;;;;19.33;98.73;101033.78;4997766;28;20030;-76
2021/07/11 04:26:48;;;;;;;12.50;8.35;;;;;;;19.44;97.90;101037.97;5005550;28;20643;-76
2021/07/11 04:29:16;;;;;;;15.43;8.25;;;;;;;19.38;99.08;101031.38;4984279;28;20399;-77
2021/07/11 04:31:44;;;;;;;15.45;8.50;;;;;;;19.39;99.05;101030.22;4998604;28;20041;-76
2021/07/11 04:34:23;;;;;;;13.02;8.60;;;;;;;19.40;99.34;101030.97;5003747;28;20136;-77
2021/07/11 04:36:48;;;;;;;11.77;7.75;;;;;;;19.44;99.94;101031.72;4988756;28;20034;-77
2021/07/11 04:39:14;;;;;;;13.90;8.90;;;;;;;19.59;99.14;101028.44;5005727;28;20042;-77
2021/07/11 04:41:41;;;;;;;15.02;7.50;;;;;;;19.69;98.90;101043.16;4988114;28;20041;-76
2021/07/11 04:44:08;;;;;;;9.55;7.88;;;;;;;19.85;97.92;101045.34;5001875;28;20042;-77
2021/07/11 04:46:33;;;;;;;11.32;8.07;;;;;;;19.86;97.56;101044.16;4970707;28;20065;-77
2021/07/11 04:48:59;;;;;;;11.27;7.68;;;;;;;19.79;98.20;101045.03;4985815;28;20124;-77
2021/07/11 04:51:24;;;;;;;10.18;7.35;;;;;;;19.98;97.37;101043.63;4997228;28;20046;-77
2021/07/11 04:53:50;;;;;;;8.40;6.80;;;;;;;19.90;98.54;101056.59;4991064;28;20513;-76
2021/07/11 04:56:15;;;;;;;8.20;6.65;;;;;;;19.89;98.59;101055.06;4999930;28;20026;-77
2021/07/11 04:58:41;;;;;;;14.82;7.75;;;;;;;19.92;99.41;101056.22;4983755;28;20672;-77
2021/07/11 05:01:06;;;;;;;9.27;7.43;;;;;;;20.09;97.87;101055.97;4991373;28;20034;-76
2021/07/11 05:03:32;;;;;;;12.00;6.95;;;;;;;19.98;98.84;101057.28;4992886;28;20034;-77
2021/07/11 05:05:57;;;;;;;11.63;8.05;;;;;;;20.09;98.08;101053.25;4974729;28;20121;-77
2021/07/11 05:08:23;;;;;;;12.80;7.18;;;;;;;20.03;98.44;101054.91;4985168;28;20081;-76
2021/07/11 05:10:48;;;;;;;12.40;7.13;;;;;;;19.92;98.94;101058.94;4994154;28;20100;-77
2021/07/11 05:13:13;;;;;;;8.85;6.95;;;;;;;19.85;99.58;101068.00;4990398;28;20069;-77
2021/07/11 05:15:39;;;;;;;11.13;7.38;;;;;;;19.84;100.00;101068.41;4985649;28;20045;-76
2021/07/11 05:18:04;;;;;;;11.70;7.50;;;;;;;20.01;99.08;101072.91;4979972;28;20041;-77
2021/07/11 05:20:30;;;;;;;13.63;6.82;;;;;;;20.09;98.20;101077.88;5008303;28;20034;-76
2021/07/11 05:22:56;;;;;;;13.48;8.13;;;;;;;19.97;99.12;101066.69;4998551;28;20038;-76
2021/07/11 05:25:21;;;;;;;12.48;7.30;;;;;;;19.97;99.31;101072.94;4993092;28;20038;-77
2021/07/11 05:27:48;;;;;;;8.80;7.15;;;;;;;20.11;98.47;101080.22;4999729;28;20057;-77
2021/07/11 05:30:14;;;;;;;11.23;7.20;;;;;;;20.02;99.35;101072.47;4994011;28;20117;-76
2021/07/11 05:32:39;;;;;;;13.00;7.55;;;;;;;20.00;99.05;101074.06;4993095;28;20105;-77
2021/07/11 05:35:05;;;;;;;11.88;7.00;;;;;;;20.08;98.64;101083.75;4996895;28;20049;-77
2021/07/11 05:37:31;;;;;;;12.02;7.97;;;;;;;20.07;99.18;101080.25;4991426;28;20026;-77
2021/07/11 05:39:56;;;;;;;9.73;7.05;;;;;;;20.17;98.66;101087.53;4986625;28;20066;-77
2021/07/11 05:42:22;;;;;;;13.70;7.30;;;;;;;20.13;99.56;101088.78;5005568;28;20085;-77
2021/07/11 05:44:47;;;;;;;12.32;7.60;;;;;;;19.94;99.63;101086.66;4992034;28;20053;-77
2021/07/11 05:47:13;;;;;;;12.30;7.18;;;;;;;20.20;98.98;101084.03;4992749;28;20038;-77
2021/07/11 05:49:38;;;;;;;8.77;7.22;;;;;;;20.16;98.36;101085.22;5003277;28;20476;-77
2021/07/11 05:52:04;;;;;;;9.45;7.28;;;;;;;20.18;98.71;101082.84;4990120;28;20048;-77
2021/07/11 05:54:29;;;;;;;10.32;6.85;;;;;;;20.21;98.26;101085.56;4992906;28;20165;-76
2021/07/11 05:56:54;;;;;;;10.63;7.53;;;;;;;20.23;99.10;101083.19;4984778;28;20402;-76
2021/07/11 05:59:20;;;;;;;9.05;7.10;;;;;;;20.20;99.14;101086.78;4992332;28;20431;-77
2021/07/11 06:01:45;;;;;;;14.43;8.02;;;;;;;20.27;98.52;101078.47;5003685;28;20034;-77
2021/07/11 06:04:11;;;;;;;11.80;7.20;;;;;;;20.33;97.69;101084.25;4993347;28;20802;-76
2021/07/11 06:06:36;;;;;;;14.88;7.63;;;;;;;20.40;97.69;101090.41;4984574;28;20531;-77
2021/07/11 06:09:02;;;;;;;10.60;7.80;;;;;;;20.41;97.30;101080.25;4993214;28;20042;-77
2021/07/11 06:11:27;;;;;;;11.40;7.30;;;;;;;20.36;98.21;101084.19;4992030;28;20137;-77
2021/07/11 06:13:53;;;;;;;11.55;6.93;;;;;;;20.34;98.90;101080.34;4979144;28;20498;-76
2021/07/11 06:16:18;;;;;;;9.50;7.40;;;;;;;20.40;98.51;101097.88;4988646;28;20030;-77
2021/07/11 06:18:44;;;;;;;10.07;7.00;;;;;;;20.52;98.49;101086.34;4991949;28;20030;-76
2021/07/11 06:21:09;;;;;;;12.55;7.07;;;;;;;20.51;98.60;101093.81;4993732;28;20049;-77
2021/07/11 06:23:36;;;;;;;9.52;7.18;;;;;;;20.46;98.71;101088.78;4991310;28;20108;-76
2021/07/11 06:26:02;;;;;;;12.15;7.43;;;;;;;20.48;99.00;101088.34;4992230;28;20038;-77
2021/07/11 06:28:27;;;;;;;12.63;7.32;;;;;;;20.58;98.50;101087.44;4984873;28;20049;-77
2021/07/11 06:30:53;;;;;;;15.38;6.95;;;;;;;20.63;98.72;101087.75;5005214;28;20039;-77
2021/07/11 06:33:19;;;;;;;9.20;7.30;;;;;;;20.65;98.97;101085.38;4992953;28;20034;-77
2021/07/11 06:35:45;;;;;;;10.25;7.55;;;;;;;20.77;98.98;101084.03;4977970;28;20041;-77
2021/07/11 06:38:10;;;;;;;11.60;6.78;;;;;;;20.86;98.77;101087.06;4989605;28;20038;-76
2021/07/11 06:40:36;;;;;;;10.10;7.20;;;;;;;20.82;99.06;101082.81;4973040;28;20027;-77
2021/07/11 06:43:01;;;;;;;11.48;7.30;;;;;;;20.83;98.83;101082.38;4989720;28;20674;-76
2021/07/11 06:45:27;;;;;;;11.98;7.60;;;;;;;20.97;97.99;101087.66;5004062;28;20043;-76
2021/07/11 06:47:52;;;;;;;9.77;6.78;;;;;;;20.97;97.95;101086.88;4989184;28;20030;-76
2021/07/11 06:50:18;;;;;;;13.25;6.65;;;;;;;21.06;97.83;101087.94;4988405;28;20032;-77
2021/07/11 06:52:44;;;;;;;10.75;7.10;;;;;;;21.22;95.95;101090.81;4990500;28;20034;-76
2021/07/11 06:55:11;;;;;;;7.72;6.50;;;;;;;21.40;95.23;101091.31;4985338;28;20038;-77
2021/07/11 06:57:38;;;;;;;10.52;6.70;;;;;;;21.43;95.20;101090.47;5007106;28;20050;-77
2021/07/11 07:00:06;;;;;;;10.40;7.05;;;;;;;21.65;94.69;101098.31;4980294;28;20050;-77
2021/07/11 07:02:32;;;;;;;11.20;6.50;;;;;;;21.79;94.44;101082.38;4978511;28;20400;-77
2021/07/11 07:04:57;;;;;;;11.60;6.72;;;;;;;21.95;93.80;101087.22;5001172;28;20034;-77
2021/07/11 07:07:23;;;;;;;10.98;6.40;;;;;;;22.19;93.75;101097.69;4988325;28;20041;-77
2021/07/11 07:09:48;;;;;;;10.77;6.38;;;;;;;22.33;91.81;101099.38;4993133;28;20445;-77
2021/07/11 07:12:13;;;;;;;9.00;6.05;;;;;;;22.37;91.92;101103.59;5007534;28;20494;-76
2021/07/11 07:14:39;;;;;;;11.00;6.88;;;;;;;22.56;91.18;101096.53;4989816;28;20061;-77
2021/07/11 07:17:05;;;;;;;12.07;5.82;;;;;;;22.73;89.93;101095.38;4989599;28;20434;-77
2021/07/11 07:19:30;;;;;;;7.80;5.63;;;;;;;22.79;90.07;101104.66;4988757;28;20470;-76
2021/07/11 07:21:56;;;;;;;8.52;5.32;;;;;;;22.92;88.88;101093.75;4969356;28;20072;-76
2021/07/11 07:24:21;;;;;;;5.70;5.10;;;;;;;23.15;88.64;101097.13;5013087;28;20045;-76
2021/07/11 07:26:47;;;;;;;8.25;5.68;;;;;;;23.37;87.39;101097.41;5006651;28;20058;-77
2021/07/11 07:29:12;;;;;;;10.40;5.63;;;;;;;23.57;87.67;101105.56;4991291;28;20030;-76
2021/07/11 07:31:38;;;;;;;7.50;5.50;;;;;;;23.76;86.06;101101.91;5005038;28;20353;-77
2021/07/11 07:34:04;;;;;;;9.35;5.43;;;;;;;23.93;85.22;101095.16;5008430;28;20130;-77
2021/07/11 07:36:30;;;;;;;11.80;5.28;;;;;;;24.05;84.83;101092.47;4990606;28;20030;-77
2021/07/11 07:38:56;;;;;;;7.22;4.93;;;;;;;24.02;83.54;101085.06;4954648;28;20034;-77
2021/07/11 07:41:21;;;;;;;6.88;5.50;;;;;;;24.10;83.20;101088.41;5014294;28;20053;-77
2021/07/11 07:43:47;;;;;;;10.63;5.05;;;;;;;24.31;81.10;101090.56;4994959;28;20029;-76
2021/07/11 07:46:12;;;;;;;7.00;5.18;;;;;;;24.23;81.35;101097.50;4997404;28;20418;-77
2021/07/11 07:48:39;;;;;;;8.80;5.15;;;;;;;24.23;81.51;101093.97;4991063;28;20103;-77
2021/07/11 07:51:04;;;;;;;7.47;4.55;;;;;;;24.33;82.31;101096.38;4987303;28;20042;-77
2021/07/11 07:53:30;;;;;;;8.77;5.22;;;;;;;24.51;82.15;101096.66;5005377;28;20042;-76
2021/07/11 07:55:55;;;;;;;9.70;4.88;;;;;;;24.47;80.98;101098.72;4989913;28;20153;-76
2021/07/11 07:58:21;;;;;;;6.28;5.10;;;;;;;24.48;81.93;101097.53;4980132;28;20046;-77
2021/07/11 08:00:46;;;;;;;10.57;5.30;;;;;;;24.52;81.29;101091.91;4982248;28;20046;-77
2021/07/11 08:03:12;;;;;;;9.70;5.28;;;;;;;24.53;82.82;101094.22;5001171;28;20048;-77
2021/07/11 08:05:37;;;;;;;7.05;4.95;;;;;;;24.56;82.20;101098.09;4992246;28;20030;-77
2021/07/11 08:10:31;;;;;;;5.40;4.85;;;;;;;24.77;81.73;101089.97;4966675;28;20046;-75
2021/07/11 08:12:56;;;;;;;7.13;4.82;;;;;;;25.00;81.27;101094.38;4982258;28;20042;-75
2021/07/11 08:15:22;;;;;;;6.03;4.53;;;;;;;25.04;80.55;101089.53;4969074;28;20026;-75
2021/07/11 08:17:49;;;;;;;4.97;4.28;;;;;;;25.14;80.32;101079.34;4982489;28;20419;-75
2021/07/11 08:20:18;;;;;;;8.02;4.75;;;;;;;24.95;78.71;101086.66;4976588;28;20046;-75
2021/07/11 08:22:44;;;;;;;6.15;4.80;;;;;;;24.89;78.94;101093.94;4982533;28;20046;-75
2021/07/11 08:25:11;;;;;;;7.93;4.90;;;;;;;25.08;79.82;101090.19;4968584;28;20031;-75
2021/07/11 08:27:37;;;;;;;6.50;4.72;;;;;;;25.30;77.43;101096.53;4964995;28;20023;-75
2021/07/11 08:30:05;;;;;;;8.50;5.20;;;;;;;25.33;77.57;101092.13;4978357;28;20114;-76
2021/07/11 08:32:30;;;;;;;8.38;4.50;;;;;;;25.58;78.56;101092.06;4973956;28;20027;-75
2021/07/11 08:34:56;;;;;;;6.15;4.63;;;;;;;25.70;76.31;101092.03;4968665;28;20094;-75
2021/07/11 08:37:21;;;;;;;7.20;4.43;;;;;;;25.86;75.59;101100.13;4957396;28;20037;-75
2021/07/11 08:39:47;;;;;;;4.95;4.15;;;;;;;26.01;75.17;101089.38;4964683;28;20058;-75
2021/07/11 08:42:12;;;;;;;6.70;5.07;;;;;;;26.15;74.57;101099.16;4987385;28;20471;-76
2021/07/11 08:44:38;;;;;;;6.28;4.38;;;;;;;26.30;74.54;101100.94;4959296;28;20023;-75
2021/07/11 08:47:04;;;;;;;9.25;4.70;;;;;;;26.44;72.68;101089.34;4955725;28;20039;-75
2021/07/11 08:49:30;;;;;;;7.60;4.45;;;;;;;26.60;74.09;101097.41;4987709;28;20078;-75
2021/07/11 08:51:58;;;;;;;9.63;4.43;;;;;;;26.60;72.06;101097.41;4965957;28;20522;-75
2021/07/11 08:54:24;;;;;;;6.97;4.43;;;;;;;26.75;72.39;101103.94;4988355;28;20495;-76
2021/07/11 08:56:55;;;;;;;4.93;4.25;;;;;;;26.91;71.55;101100.16;4976254;28;20030;-75
2021/07/11 08:59:21;;;;;;;7.18;4.45;;;;;;;27.04;73.22;101098.03;4981199;28;20086;-75
2021/07/11 09:01:46;;;;;;;8.90;4.38;;;;;;;27.24;68.19;101094.88;4975436;28;20037;-75
2021/07/11 09:04:11;;;;;;;7.38;4.32;;;;;;;27.38;71.64;101083.25;4974223;28;20046;-75
2021/07/11 09:06:46;;;;;;;7.60;4.50;;;;;;;27.57;70.37;101090.34;4980107;28;20524;-76
2021/07/11 09:09:20;;;;;;;8.15;4.63;;;;;;;27.72;66.99;101085.72;4975091;28;20086;-75
2021/07/11 09:11:48;;;;;;;5.30;4.63;;;;;;;27.81;66.06;101087.72;4960251;28;20074;-75
2021/07/11 09:14:23;;;;;;;7.10;4.28;;;;;;;27.85;66.27;101085.56;4970819;28;20027;-76
2021/07/11 09:16:49;;;;;;;8.25;4.43;;;;;;;28.01;64.52;101091.56;4974035;28;21281;-76
2021/07/11 09:19:25;;;;;;;5.00;3.85;;;;;;;28.13;66.66;101087.09;4972820;28;20031;-76
2021/07/11 09:22:09;;;;;;;9.93;4.68;;;;;;;28.15;66.72;101076.31;4969681;28;20047;-76
2021/07/11 09:24:36;;;;;;;7.78;4.50;;;;;;;28.31;65.86;101079.53;4960909;28;20407;-76
2021/07/11 09:27:13;;;;;;;5.88;4.38;;;;;;;28.36;65.78;101078.88;4959710;28;20046;-76
2021/07/11 09:29:41;;;;;;;5.80;4.32;;;;;;;28.61;67.49;101079.75;4959010;28;20035;-76
2021/07/11 09:32:08;;;;;;;6.15;4.28;;;;;;;28.71;62.72;101070.13;4958951;28;20058;-76
2021/07/11 09:34:38;;;;;;;5.57;4.57;;;;;;;28.89;61.11;101072.84;4972341;28;20034;-76
2021/07/11 09:37:13;;;;;;;7.75;5.15;;;;;;;28.88;59.58;101077.63;4972354;28;20093;-76
2021/07/11 09:40:06;;;;;;;8.20;5.00;;;;;;;28.62;56.65;101073.75;4978199;28;20035;-76
2021/07/11 09:42:31;;;;;;;7.38;5.30;;;;;;;28.91;57.68;101073.13;4967546;28;20039;-76
2021/07/11 09:44:58;;;;;;;5.20;4.25;;;;;;;29.07;58.41;101076.28;4988179;28;20415;-75
2021/07/11 09:47:26;;;;;;;6.72;4.68;;;;;;;29.19;61.50;101078.06;4979986;28;20027;-76
2021/07/11 09:50:23;;;;;;;9.10;5.07;;;;;;;28.80;56.53;101073.66;4977775;28;20077;-76
2021/07/11 09:52:56;;;;;;;5.18;4.50;;;;;;;28.96;58.06;101073.25;4973449;28;20106;-76
2021/07/11 09:55:30;;;;;;;6.78;4.93;;;;;;;29.21;57.06;101083.94;4987932;28;20037;-76
2021/07/11 09:58:02;;;;;;;8.40;5.38;;;;;;;29.12;54.57;101074.84;4973304;28;20045;-75
2021/07/11 10:00:35;;;;;;;5.32;4.78;;;;;;;29.09;54.38;101073.03;4981097;28;20193;-76
2021/07/11 10:03:11;;;;;;;6.97;4.68;;;;;;;29.23;56.12;101072.34;4983264;28;20042;-76
2021/07/11 10:05:37;;;;;;;5.68;4.65;;;;;;;29.51;56.19;101068.16;4966651;28;20046;-76
2021/07/11 10:08:03;;;;;;;6.25;4.80;;;;;;;29.57;56.42;101074.56;4960131;28;20034;-76
2021/07/11 10:10:33;;;;;;;7.18;5.20;;;;;;;29.74;56.63;101070.13;4967547;28;20487;-76
2021/07/11 10:13:01;;;;;;;6.35;4.93;;;;;;;29.72;54.68;101061.50;4961573;28;20610;-76
2021/07/11 10:15:30;;;;;;;7.47;4.70;;;;;;;29.61;53.63;101066.06;4958095;28;20087;-76
2021/07/11 10:18:12;;;;;;;6.35;4.50;;;;;;;29.77;53.17;101079.53;4983025;28;20034;-75
2021/07/11 10:20:45;;;;;;;5.95;4.88;;;;;;;29.78;54.35;101073.50;4970763;28;20061;-75
2021/07/11 10:23:23;;;;;;;6.28;4.75;;;;;;;29.96;53.22;101067.78;4984968;28;20073;-75
2021/07/11 10:25:55;;;;;;;11.23;5.35;;;;;;;30.22;53.79;101074.28;4962028;28;20039;-75
2021/07/11 10:28:26;;;;;;;5.20;4.68;;;;;;;30.03;52.45;101070.16;4988484;28;20089;-75
2021/07/11 10:30:51;;;;;;;6.20;4.50;;;;;;;30.14;51.03;101070.34;4986737;28;20411;-75
2021/07/11 10:33:19;;;;;;;6.32;4.50;;;;;;;30.16;50.62;101069.88;4983880;28;20034;-75
2021/07/11 10:35:52;;;;;;;6.15;4.25;;;;;;;30.43;53.64;101077.19;4987563;28;20027;-75
2021/07/11 10:38:39;;;;;;;5.63;4.65;;;;;;;30.49;50.45;101076.00;4970358;28;20041;-75
2021/07/11 10:41:32;;;;;;;5.35;4.38;;;;;;;30.22;51.02;101071.50;4974856;28;20038;-75
2021/07/11 10:44:03;;;;;;;5.25;4.72;;;;;;;30.43;51.87;101068.84;4965803;28;20138;-75
2021/07/11 10:46:35;;;;;;;6.53;4.75;;;;;;;30.40;52.38;101067.78;4955113;28;20066;-75
2021/07/11 10:49:30;;;;;;;6.70;5.03;;;;;;;30.56;52.31;101070.06;4968834;28;20126;-74
2021/07/11 10:52:23;;;;;;;5.93;4.65;;;;;;;30.69;52.76;101069.75;4971305;28;20122;-75
2021/07/11 10:54:53;;;;;;;5.63;4.65;;;;;;;30.73;50.39;101070.31;4959533;28;20086;-74
2021/07/11 10:57:31;;;;;;;8.10;4.55;;;;;;;30.68;51.22;101076.56;4981254;28;20074;-75
2021/07/11 11:00:20;;;;;;;5.35;4.53;;;;;;;30.64;49.30;101078.78;4954486;28;20043;-75
2021/07/11 11:02:48;;;;;;;5.05;4.47;;;;;;;30.64;48.98;101076.00;4972356;28;20122;-75
2021/07/11 11:05:20;;;;;;;4.63;4.20;;;;;;;30.85;48.00;101075.59;4982216;28;20117;-75
2021/07/11 11:07:53;;;;;;;4.25;3.83;;;;;;;30.89;48.47;101076.16;4980622;28;20050;-75
2021/07/11 11:10:32;;;;;;;4.88;4.38;;;;;;;31.03;49.43;101080.13;4987110;28;20697;-75
2021/07/11 11:13:34;;;;;;;4.65;4.13;;;;;;;31.16;49.34;101071.44;4985060;28;20116;-75
2021/07/11 11:16:13;;;;;;;4.78;4.30;;;;;;;31.53;48.40;101078.00;4930997;28;20038;-75
2021/07/11 11:18:40;;;;;;;8.45;4.30;;;;;;;31.52;48.54;101068.88;4971993;28;20054;-75
2021/07/11 11:21:24;;;;;;;6.53;4.38;;;;;;;31.44;48.06;101073.34;4983221;28;20035;-75
2021/07/11 11:24:18;;;;;;;6.65;3.90;;;;;;;31.48;48.71;101068.31;4985813;28;20109;-75
2021/07/11 11:26:44;;;;;;;7.28;4.50;;;;;;;31.25;47.85;101062.94;4910345;29;20059;-75
2021/07/11 11:29:09;;;;;;;6.03;4.65;;;;;;;31.29;47.92;101064.28;4906939;29;20459;-75
2021/07/11 11:31:36;;;;;;;5.80;4.53;;;;;;;31.05;48.38;101069.25;4912769;29;20785;-75